sensor_id;sensor_type;location;lat;lon;timestamp;P1;durP1;ratioP1;P2;durP2;ratioP2
79592;SDS011;69074;45.164;9.704;2023-05-10T00:00:11;6.5;;;4.9;;
79592;SDS011;69074;45.164;9.704;2023-05-10T00:02:35;6.5;;;4.9;;
79592;SDS011;69074;45.164;9.704;2023-05-10T00:05:00;6.3;;;5.7;;
79592;SDS011;69074;45.164;9.704;2023-05-10T00:07:25;6.3;;;5.7;;
79592;SDS011;69074;45.164;9.704;2023-05-10T00:09:50;6.3;;;5.7;;
79592;SDS011;69074;45.164;9.704;2023-05-10T00:12:15;6.3;;;5.7;;
79592;SDS011;69074;45.164;9.704;2023-05-10T00:14:40;6.3;;;5.7;;
79592;SDS011;69074;45.164;9.704;2023-05-10T00:17:05;6.3;;;5.7;;
79592;SDS011;69074;45.164;9.704;2023-05-10T00:19:30;7.8;;;6.7;;
79592;SDS011;69074;45.164;9.704;2023-05-10T00:21:55;7.8;;;6.7;;
79592;SDS011;69074;45.164;9.704;2023-05-10T00:24:21;7.8;;;6.7;;
79592;SDS011;69074;45.164;9.704;2023-05-10T00:26:45;7.8;;;6.7;;
79592;SDS011;69074;45.164;9.704;2023-05-10T00:29:10;7.8;;;6.7;;
79592;SDS011;69074;45.164;9.704;2023-05-10T00:31:35;7.8;;;6.7;;
79592;SDS011;69074;45.164;9.704;2023-05-10T00:34:01;8.5;;;6.7;;
79592;SDS011;69074;45.164;9.704;2023-05-10T00:36:25;8.5;;;6.7;;
79592;SDS011;69074;45.164;9.704;2023-05-10T00:38:50;8.5;;;6.7;;
79592;SDS011;69074;45.164;9.704;2023-05-10T00:41:15;8.5;;;6.7;;
79592;SDS011;69074;45.164;9.704;2023-05-10T00:43:40;8.5;;;6.7;;
79592;SDS011;69074;45.164;9.704;2023-05-10T00:46:05;8.5;;;6.7;;
79592;SDS011;69074;45.164;9.704;2023-05-10T00:48:30;7.4;;;6.6;;
79592;SDS011;69074;45.164;9.704;2023-05-10T00:50:55;7.4;;;6.6;;
79592;SDS011;69074;45.164;9.704;2023-05-10T00:53:20;7.4;;;6.6;;
79592;SDS011;69074;45.164;9.704;2023-05-10T00:55:45;7.4;;;6.6;;
79592;SDS011;69074;45.164;9.704;2023-05-10T00:58:10;7.4;;;6.6;;
79592;SDS011;69074;45.164;9.704;2023-05-10T01:00:35;7.4;;;6.6;;
79592;SDS011;69074;45.164;9.704;2023-05-10T01:03:00;7.4;;;6.6;;
79592;SDS011;69074;45.164;9.704;2023-05-10T01:05:25;8.9;;;6.5;;
79592;SDS011;69074;45.164;9.704;2023-05-10T01:07:50;8.9;;;6.5;;
79592;SDS011;69074;45.164;9.704;2023-05-10T01:10:15;8.9;;;6.5;;
79592;SDS011;69074;45.164;9.704;2023-05-10T01:12:41;8.9;;;6.5;;
79592;SDS011;69074;45.164;9.704;2023-05-10T01:15:06;8.9;;;6.5;;
79592;SDS011;69074;45.164;9.704;2023-05-10T01:17:30;8.9;;;6.5;;
79592;SDS011;69074;45.164;9.704;2023-05-10T01:19:55;7.5;;;6.7;;
79592;SDS011;69074;45.164;9.704;2023-05-10T01:22:26;7.5;;;6.7;;
79592;SDS011;69074;45.164;9.704;2023-05-10T01:24:51;7.5;;;6.7;;
79592;SDS011;69074;45.164;9.704;2023-05-10T01:27:17;7.5;;;6.7;;
79592;SDS011;69074;45.164;9.704;2023-05-10T01:29:43;7.5;;;6.7;;
79592;SDS011;69074;45.164;9.704;2023-05-10T01:32:04;7.5;;;6.7;;
79592;SDS011;69074;45.164;9.704;2023-05-10T01:34:27;6.7;;;6.1;;
79592;SDS011;69074;45.164;9.704;2023-05-10T01:36:51;6.7;;;6.1;;
79592;SDS011;69074;45.164;9.704;2023-05-10T01:39:17;6.7;;;6.1;;
79592;SDS011;69074;45.164;9.704;2023-05-10T01:41:42;6.7;;;6.1;;
79592;SDS011;69074;45.164;9.704;2023-05-10T01:44:09;6.7;;;6.1;;
79592;SDS011;69074;45.164;9.704;2023-05-10T01:46:32;6.7;;;6.1;;
79592;SDS011;69074;45.164;9.704;2023-05-10T01:48:56;7.3;;;6.5;;
79592;SDS011;69074;45.164;9.704;2023-05-10T01:51:21;7.3;;;6.5;;
79592;SDS011;69074;45.164;9.704;2023-05-10T01:53:46;7.3;;;6.5;;
79592;SDS011;69074;45.164;9.704;2023-05-10T01:56:10;7.3;;;6.5;;
79592;SDS011;69074;45.164;9.704;2023-05-10T01:58:35;7.3;;;6.5;;
79592;SDS011;69074;45.164;9.704;2023-05-10T02:01:01;7.3;;;6.5;;
79592;SDS011;69074;45.164;9.704;2023-05-10T02:03:25;7.8;;;6.0;;
79592;SDS011;69074;45.164;9.704;2023-05-10T02:05:50;7.8;;;6.0;;
79592;SDS011;69074;45.164;9.704;2023-05-10T02:08:15;7.8;;;6.0;;
79592;SDS011;69074;45.164;9.704;2023-05-10T02:10:40;7.8;;;6.0;;
79592;SDS011;69074;45.164;9.704;2023-05-10T02:13:05;7.8;;;6.0;;
79592;SDS011;69074;45.164;9.704;2023-05-10T02:15:30;7.8;;;6.0;;
79592;SDS011;69074;45.164;9.704;2023-05-10T02:17:55;7.8;;;6.0;;
79592;SDS011;69074;45.164;9.704;2023-05-10T02:20:20;7.2;;;6.4;;
79592;SDS011;69074;45.164;9.704;2023-05-10T02:22:46;7.2;;;6.4;;
79592;SDS011;69074;45.164;9.704;2023-05-10T02:25:10;7.2;;;6.4;;
79592;SDS011;69074;45.164;9.704;2023-05-10T02:27:35;7.2;;;6.4;;
79592;SDS011;69074;45.164;9.704;2023-05-10T02:30:00;7.2;;;6.4;;
79592;SDS011;69074;45.164;9.704;2023-05-10T02:32:26;7.2;;;6.4;;
79592;SDS011;69074;45.164;9.704;2023-05-10T02:34:50;8.8;;;7.2;;
79592;SDS011;69074;45.164;9.704;2023-05-10T02:37:15;8.8;;;7.2;;
79592;SDS011;69074;45.164;9.704;2023-05-10T02:39:40;8.8;;;7.2;;
79592;SDS011;69074;45.164;9.704;2023-05-10T02:42:05;8.8;;;7.2;;
79592;SDS011;69074;45.164;9.704;2023-05-10T02:44:30;8.8;;;7.2;;
79592;SDS011;69074;45.164;9.704;2023-05-10T02:46:55;8.8;;;7.2;;
79592;SDS011;69074;45.164;9.704;2023-05-10T02:49:20;7.6;;;6.9;;
79592;SDS011;69074;45.164;9.704;2023-05-10T02:51:47;7.6;;;6.9;;
79592;SDS011;69074;45.164;9.704;2023-05-10T02:54:11;7.6;;;6.9;;
79592;SDS011;69074;45.164;9.704;2023-05-10T02:56:36;7.6;;;6.9;;
79592;SDS011;69074;45.164;9.704;2023-05-10T02:59:00;7.6;;;6.9;;
79592;SDS011;69074;45.164;9.704;2023-05-10T03:01:25;7.6;;;6.9;;
79592;SDS011;69074;45.164;9.704;2023-05-10T03:03:50;7.9;;;6.8;;
79592;SDS011;69074;45.164;9.704;2023-05-10T03:06:15;7.9;;;6.8;;
79592;SDS011;69074;45.164;9.704;2023-05-10T03:08:40;7.9;;;6.8;;
79592;SDS011;69074;45.164;9.704;2023-05-10T03:11:09;7.9;;;6.8;;
79592;SDS011;69074;45.164;9.704;2023-05-10T03:13:31;7.9;;;6.8;;
79592;SDS011;69074;45.164;9.704;2023-05-10T03:15:57;7.9;;;6.8;;
79592;SDS011;69074;45.164;9.704;2023-05-10T03:18:21;7.6;;;6.2;;
79592;SDS011;69074;45.164;9.704;2023-05-10T03:20:46;7.6;;;6.2;;
79592;SDS011;69074;45.164;9.704;2023-05-10T03:23:12;7.6;;;6.2;;
79592;SDS011;69074;45.164;9.704;2023-05-10T03:25:35;7.6;;;6.2;;
79592;SDS011;69074;45.164;9.704;2023-05-10T03:28:01;7.6;;;6.2;;
79592;SDS011;69074;45.164;9.704;2023-05-10T03:30:25;7.6;;;6.2;;
79592;SDS011;69074;45.164;9.704;2023-05-10T03:32:50;7.6;;;6.2;;
79592;SDS011;69074;45.164;9.704;2023-05-10T03:35:15;8.1;;;7.3;;
79592;SDS011;69074;45.164;9.704;2023-05-10T03:37:40;8.1;;;7.3;;
79592;SDS011;69074;45.164;9.704;2023-05-10T03:40:06;8.1;;;7.3;;
79592;SDS011;69074;45.164;9.704;2023-05-10T03:42:31;8.1;;;7.3;;
79592;SDS011;69074;45.164;9.704;2023-05-10T03:44:56;8.1;;;7.3;;
79592;SDS011;69074;45.164;9.704;2023-05-10T03:47:21;8.1;;;7.3;;
79592;SDS011;69074;45.164;9.704;2023-05-10T03:49:45;8.9;;;7.4;;
79592;SDS011;69074;45.164;9.704;2023-05-10T03:52:10;8.9;;;7.4;;
79592;SDS011;69074;45.164;9.704;2023-05-10T03:54:35;8.9;;;7.4;;
79592;SDS011;69074;45.164;9.704;2023-05-10T03:57:00;8.9;;;7.4;;
79592;SDS011;69074;45.164;9.704;2023-05-10T03:59:25;8.9;;;7.4;;
79592;SDS011;69074;45.164;9.704;2023-05-10T04:01:50;8.9;;;7.4;;
79592;SDS011;69074;45.164;9.704;2023-05-10T04:04:16;10.4;;;7.7;;
79592;SDS011;69074;45.164;9.704;2023-05-10T04:06:40;10.4;;;7.7;;
79592;SDS011;69074;45.164;9.704;2023-05-10T04:09:05;10.4;;;7.7;;
79592;SDS011;69074;45.164;9.704;2023-05-10T04:11:30;10.4;;;7.7;;
79592;SDS011;69074;45.164;9.704;2023-05-10T04:13:55;10.4;;;7.7;;
79592;SDS011;69074;45.164;9.704;2023-05-10T04:16:20;10.4;;;7.7;;
79592;SDS011;69074;45.164;9.704;2023-05-10T04:18:45;8.0;;;6.5;;
79592;SDS011;69074;45.164;9.704;2023-05-10T04:21:11;8.0;;;6.5;;
79592;SDS011;69074;45.164;9.704;2023-05-10T04:23:35;8.0;;;6.5;;
79592;SDS011;69074;45.164;9.704;2023-05-10T04:26:01;8.0;;;6.5;;
79592;SDS011;69074;45.164;9.704;2023-05-10T04:28:25;8.0;;;6.5;;
79592;SDS011;69074;45.164;9.704;2023-05-10T04:30:50;8.0;;;6.5;;
79592;SDS011;69074;45.164;9.704;2023-05-10T04:33:15;5.5;;;4.9;;
79592;SDS011;69074;45.164;9.704;2023-05-10T04:35:40;5.5;;;4.9;;
79592;SDS011;69074;45.164;9.704;2023-05-10T04:38:05;5.5;;;4.9;;
79592;SDS011;69074;45.164;9.704;2023-05-10T04:40:30;5.5;;;4.9;;
79592;SDS011;69074;45.164;9.704;2023-05-10T04:42:55;5.5;;;4.9;;
79592;SDS011;69074;45.164;9.704;2023-05-10T04:45:20;5.5;;;4.9;;
79592;SDS011;69074;45.164;9.704;2023-05-10T04:47:45;5.5;;;4.9;;
79592;SDS011;69074;45.164;9.704;2023-05-10T04:50:10;5.9;;;4.8;;
79592;SDS011;69074;45.164;9.704;2023-05-10T04:52:35;5.9;;;4.8;;
79592;SDS011;69074;45.164;9.704;2023-05-10T04:55:01;5.9;;;4.8;;
79592;SDS011;69074;45.164;9.704;2023-05-10T04:57:25;5.9;;;4.8;;
79592;SDS011;69074;45.164;9.704;2023-05-10T04:59:51;5.9;;;4.8;;
79592;SDS011;69074;45.164;9.704;2023-05-10T05:02:15;5.9;;;4.8;;
79592;SDS011;69074;45.164;9.704;2023-05-10T05:04:40;6.1;;;4.0;;
79592;SDS011;69074;45.164;9.704;2023-05-10T05:07:05;6.1;;;4.0;;
79592;SDS011;69074;45.164;9.704;2023-05-10T05:09:30;6.1;;;4.0;;
79592;SDS011;69074;45.164;9.704;2023-05-10T05:11:56;6.1;;;4.0;;
79592;SDS011;69074;45.164;9.704;2023-05-10T05:14:20;6.1;;;4.0;;
79592;SDS011;69074;45.164;9.704;2023-05-10T05:16:46;6.1;;;4.0;;
79592;SDS011;69074;45.164;9.704;2023-05-10T05:19:10;4.6;;;3.4;;
79592;SDS011;69074;45.164;9.704;2023-05-10T05:21:35;4.6;;;3.4;;
79592;SDS011;69074;45.164;9.704;2023-05-10T05:24:00;4.6;;;3.4;;
79592;SDS011;69074;45.164;9.704;2023-05-10T05:26:26;4.6;;;3.4;;
79592;SDS011;69074;45.164;9.704;2023-05-10T05:28:51;4.6;;;3.4;;
79592;SDS011;69074;45.164;9.704;2023-05-10T05:31:15;4.6;;;3.4;;
79592;SDS011;69074;45.164;9.704;2023-05-10T05:33:40;4.2;;;3.7;;
79592;SDS011;69074;45.164;9.704;2023-05-10T05:36:06;4.2;;;3.7;;
79592;SDS011;69074;45.164;9.704;2023-05-10T05:38:30;4.2;;;3.7;;
79592;SDS011;69074;45.164;9.704;2023-05-10T05:40:55;4.2;;;3.7;;
79592;SDS011;69074;45.164;9.704;2023-05-10T05:43:20;4.2;;;3.7;;
79592;SDS011;69074;45.164;9.704;2023-05-10T05:45:46;4.2;;;3.7;;
79592;SDS011;69074;45.164;9.704;2023-05-10T05:48:10;6.1;;;3.6;;
79592;SDS011;69074;45.164;9.704;2023-05-10T05:50:35;6.1;;;3.6;;
79592;SDS011;69074;45.164;9.704;2023-05-10T05:53:00;6.1;;;3.6;;
79592;SDS011;69074;45.164;9.704;2023-05-10T05:55:25;6.1;;;3.6;;
79592;SDS011;69074;45.164;9.704;2023-05-10T05:57:50;6.1;;;3.6;;
79592;SDS011;69074;45.164;9.704;2023-05-10T06:00:16;6.1;;;3.6;;
79592;SDS011;69074;45.164;9.704;2023-05-10T06:02:41;6.1;;;3.6;;
79592;SDS011;69074;45.164;9.704;2023-05-10T06:05:06;3.3;;;2.9;;
79592;SDS011;69074;45.164;9.704;2023-05-10T06:07:30;3.3;;;2.9;;
79592;SDS011;69074;45.164;9.704;2023-05-10T06:09:56;3.3;;;2.9;;
79592;SDS011;69074;45.164;9.704;2023-05-10T06:12:20;3.3;;;2.9;;
79592;SDS011;69074;45.164;9.704;2023-05-10T06:14:45;3.3;;;2.9;;
79592;SDS011;69074;45.164;9.704;2023-05-10T06:17:10;3.3;;;2.9;;
79592;SDS011;69074;45.164;9.704;2023-05-10T06:19:36;7.0;;;5.1;;
79592;SDS011;69074;45.164;9.704;2023-05-10T06:22:00;7.0;;;5.1;;
79592;SDS011;69074;45.164;9.704;2023-05-10T06:24:25;7.0;;;5.1;;
79592;SDS011;69074;45.164;9.704;2023-05-10T06:26:50;7.0;;;5.1;;
79592;SDS011;69074;45.164;9.704;2023-05-10T06:29:15;7.0;;;5.1;;
79592;SDS011;69074;45.164;9.704;2023-05-10T06:31:40;7.0;;;5.1;;
79592;SDS011;69074;45.164;9.704;2023-05-10T06:34:05;8.8;;;7.9;;
79592;SDS011;69074;45.164;9.704;2023-05-10T06:36:31;8.8;;;7.9;;
79592;SDS011;69074;45.164;9.704;2023-05-10T06:38:55;8.8;;;7.9;;
79592;SDS011;69074;45.164;9.704;2023-05-10T06:41:20;8.8;;;7.9;;
79592;SDS011;69074;45.164;9.704;2023-05-10T06:43:45;8.8;;;7.9;;
79592;SDS011;69074;45.164;9.704;2023-05-10T06:46:10;8.8;;;7.9;;
79592;SDS011;69074;45.164;9.704;2023-05-10T06:48:35;8.5;;;6.9;;
79592;SDS011;69074;45.164;9.704;2023-05-10T06:51:01;8.5;;;6.9;;
79592;SDS011;69074;45.164;9.704;2023-05-10T06:53:26;8.5;;;6.9;;
79592;SDS011;69074;45.164;9.704;2023-05-10T06:55:50;8.5;;;6.9;;
79592;SDS011;69074;45.164;9.704;2023-05-10T06:58:16;8.5;;;6.9;;
79592;SDS011;69074;45.164;9.704;2023-05-10T07:00:41;8.5;;;6.9;;
79592;SDS011;69074;45.164;9.704;2023-05-10T07:03:06;8.5;;;6.9;;
79592;SDS011;69074;45.164;9.704;2023-05-10T07:05:30;7.9;;;7.1;;
79592;SDS011;69074;45.164;9.704;2023-05-10T07:07:55;7.9;;;7.1;;
79592;SDS011;69074;45.164;9.704;2023-05-10T07:10:21;7.9;;;7.1;;
79592;SDS011;69074;45.164;9.704;2023-05-10T07:12:45;7.9;;;7.1;;
79592;SDS011;69074;45.164;9.704;2023-05-10T07:15:11;7.9;;;7.1;;
79592;SDS011;69074;45.164;9.704;2023-05-10T07:17:36;7.9;;;7.1;;
79592;SDS011;69074;45.164;9.704;2023-05-10T07:20:01;7.3;;;5.8;;
79592;SDS011;69074;45.164;9.704;2023-05-10T07:22:26;7.3;;;5.8;;
79592;SDS011;69074;45.164;9.704;2023-05-10T07:24:51;7.3;;;5.8;;
79592;SDS011;69074;45.164;9.704;2023-05-10T07:27:16;7.3;;;5.8;;
79592;SDS011;69074;45.164;9.704;2023-05-10T07:29:41;7.3;;;5.8;;
79592;SDS011;69074;45.164;9.704;2023-05-10T07:32:06;7.3;;;5.8;;
79592;SDS011;69074;45.164;9.704;2023-05-10T07:34:31;5.9;;;5.1;;
79592;SDS011;69074;45.164;9.704;2023-05-10T07:36:56;5.9;;;5.1;;
79592;SDS011;69074;45.164;9.704;2023-05-10T07:39:21;5.9;;;5.1;;
79592;SDS011;69074;45.164;9.704;2023-05-10T07:41:46;5.9;;;5.1;;
79592;SDS011;69074;45.164;9.704;2023-05-10T07:44:11;5.9;;;5.1;;
79592;SDS011;69074;45.164;9.704;2023-05-10T07:46:36;5.9;;;5.1;;
79592;SDS011;69074;45.164;9.704;2023-05-10T07:49:01;5.1;;;4.6;;
79592;SDS011;69074;45.164;9.704;2023-05-10T07:51:26;5.1;;;4.6;;
79592;SDS011;69074;45.164;9.704;2023-05-10T07:53:51;5.1;;;4.6;;
79592;SDS011;69074;45.164;9.704;2023-05-10T07:56:19;5.1;;;4.6;;
79592;SDS011;69074;45.164;9.704;2023-05-10T07:58:41;5.1;;;4.6;;
79592;SDS011;69074;45.164;9.704;2023-05-10T08:01:06;5.1;;;4.6;;
79592;SDS011;69074;45.164;9.704;2023-05-10T08:03:31;4.3;;;3.9;;
79592;SDS011;69074;45.164;9.704;2023-05-10T08:05:56;4.3;;;3.9;;
79592;SDS011;69074;45.164;9.704;2023-05-10T08:08:21;4.3;;;3.9;;
79592;SDS011;69074;45.164;9.704;2023-05-10T08:10:46;4.3;;;3.9;;
79592;SDS011;69074;45.164;9.704;2023-05-10T08:13:11;4.3;;;3.9;;
79592;SDS011;69074;45.164;9.704;2023-05-10T08:15:36;4.3;;;3.9;;
79592;SDS011;69074;45.164;9.704;2023-05-10T08:18:01;4.3;;;3.9;;
79592;SDS011;69074;45.164;9.704;2023-05-10T08:20:26;8.4;;;7.6;;
79592;SDS011;69074;45.164;9.704;2023-05-10T08:22:51;8.4;;;7.6;;
79592;SDS011;69074;45.164;9.704;2023-05-10T08:25:16;8.4;;;7.6;;
79592;SDS011;69074;45.164;9.704;2023-05-10T08:27:41;8.4;;;7.6;;
79592;SDS011;69074;45.164;9.704;2023-05-10T08:30:06;8.4;;;7.6;;
79592;SDS011;69074;45.164;9.704;2023-05-10T08:32:31;8.4;;;7.6;;
79592;SDS011;69074;45.164;9.704;2023-05-10T08:34:56;9.3;;;8.4;;
79592;SDS011;69074;45.164;9.704;2023-05-10T08:37:21;9.3;;;8.4;;
79592;SDS011;69074;45.164;9.704;2023-05-10T08:39:46;9.3;;;8.4;;
79592;SDS011;69074;45.164;9.704;2023-05-10T08:42:11;9.3;;;8.4;;
79592;SDS011;69074;45.164;9.704;2023-05-10T08:44:36;9.3;;;8.4;;
79592;SDS011;69074;45.164;9.704;2023-05-10T08:47:02;9.3;;;8.4;;
79592;SDS011;69074;45.164;9.704;2023-05-10T08:49:26;7.0;;;6.3;;
79592;SDS011;69074;45.164;9.704;2023-05-10T08:51:51;7.0;;;6.3;;
79592;SDS011;69074;45.164;9.704;2023-05-10T08:54:16;7.0;;;6.3;;
79592;SDS011;69074;45.164;9.704;2023-05-10T08:56:41;7.0;;;6.3;;
79592;SDS011;69074;45.164;9.704;2023-05-10T08:59:06;7.0;;;6.3;;
79592;SDS011;69074;45.164;9.704;2023-05-10T09:01:31;7.0;;;6.3;;
79592;SDS011;69074;45.164;9.704;2023-05-10T09:03:56;5.4;;;4.6;;
79592;SDS011;69074;45.164;9.704;2023-05-10T09:06:21;5.4;;;4.6;;
79592;SDS011;69074;45.164;9.704;2023-05-10T09:08:46;5.4;;;4.6;;
79592;SDS011;69074;45.164;9.704;2023-05-10T09:11:11;5.4;;;4.6;;
79592;SDS011;69074;45.164;9.704;2023-05-10T09:13:36;5.4;;;4.6;;
79592;SDS011;69074;45.164;9.704;2023-05-10T09:16:01;5.4;;;4.6;;
79592;SDS011;69074;45.164;9.704;2023-05-10T09:18:26;6.3;;;5.3;;
79592;SDS011;69074;45.164;9.704;2023-05-10T09:20:51;6.3;;;5.3;;
79592;SDS011;69074;45.164;9.704;2023-05-10T09:23:16;6.3;;;5.3;;
79592;SDS011;69074;45.164;9.704;2023-05-10T09:25:41;6.3;;;5.3;;
79592;SDS011;69074;45.164;9.704;2023-05-10T09:28:06;6.3;;;5.3;;
79592;SDS011;69074;45.164;9.704;2023-05-10T09:30:31;6.3;;;5.3;;
79592;SDS011;69074;45.164;9.704;2023-05-10T09:32:56;6.3;;;5.3;;
79592;SDS011;69074;45.164;9.704;2023-05-10T09:35:21;9.5;;;8.1;;
79592;SDS011;69074;45.164;9.704;2023-05-10T09:37:47;9.5;;;8.1;;
79592;SDS011;69074;45.164;9.704;2023-05-10T09:40:11;9.5;;;8.1;;
79592;SDS011;69074;45.164;9.704;2023-05-10T09:42:36;9.5;;;8.1;;
79592;SDS011;69074;45.164;9.704;2023-05-10T09:45:02;9.5;;;8.1;;
79592;SDS011;69074;45.164;9.704;2023-05-10T09:47:26;9.5;;;8.1;;
79592;SDS011;69074;45.164;9.704;2023-05-10T09:49:51;12.0;;;7.0;;
79592;SDS011;69074;45.164;9.704;2023-05-10T09:52:16;12.0;;;7.0;;
79592;SDS011;69074;45.164;9.704;2023-05-10T09:54:42;12.0;;;7.0;;
79592;SDS011;69074;45.164;9.704;2023-05-10T09:57:06;12.0;;;7.0;;
79592;SDS011;69074;45.164;9.704;2023-05-10T09:59:32;12.0;;;7.0;;
79592;SDS011;69074;45.164;9.704;2023-05-10T10:01:56;12.0;;;7.0;;
79592;SDS011;69074;45.164;9.704;2023-05-10T10:04:21;8.6;;;5.8;;
79592;SDS011;69074;45.164;9.704;2023-05-10T10:06:46;8.6;;;5.8;;
79592;SDS011;69074;45.164;9.704;2023-05-10T10:09:11;8.6;;;5.8;;
79592;SDS011;69074;45.164;9.704;2023-05-10T10:11:36;8.6;;;5.8;;
79592;SDS011;69074;45.164;9.704;2023-05-10T10:14:01;8.6;;;5.8;;
79592;SDS011;69074;45.164;9.704;2023-05-10T10:16:26;8.6;;;5.8;;
79592;SDS011;69074;45.164;9.704;2023-05-10T10:18:51;4.2;;;3.8;;
79592;SDS011;69074;45.164;9.704;2023-05-10T10:21:16;4.2;;;3.8;;
79592;SDS011;69074;45.164;9.704;2023-05-10T10:23:41;4.2;;;3.8;;
79592;SDS011;69074;45.164;9.704;2023-05-10T10:26:06;4.2;;;3.8;;
79592;SDS011;69074;45.164;9.704;2023-05-10T10:28:33;4.2;;;3.8;;
79592;SDS011;69074;45.164;9.704;2023-05-10T10:30:56;4.2;;;3.8;;
79592;SDS011;69074;45.164;9.704;2023-05-10T10:33:39;4.0;;;3.3;;
79592;SDS011;69074;45.164;9.704;2023-05-10T10:35:46;4.0;;;3.3;;
79592;SDS011;69074;45.164;9.704;2023-05-10T10:38:11;4.0;;;3.3;;
79592;SDS011;69074;45.164;9.704;2023-05-10T10:40:36;4.0;;;3.3;;
79592;SDS011;69074;45.164;9.704;2023-05-10T10:43:20;4.0;;;3.3;;
79592;SDS011;69074;45.164;9.704;2023-05-10T10:45:26;4.0;;;3.3;;
79592;SDS011;69074;45.164;9.704;2023-05-10T10:48:19;4.0;;;3.3;;
79592;SDS011;69074;45.164;9.704;2023-05-10T10:50:16;4.9;;;3.7;;
79592;SDS011;69074;45.164;9.704;2023-05-10T10:52:41;4.9;;;3.7;;
79592;SDS011;69074;45.164;9.704;2023-05-10T10:55:07;4.9;;;3.7;;
79592;SDS011;69074;45.164;9.704;2023-05-10T10:57:32;4.9;;;3.7;;
79592;SDS011;69074;45.164;9.704;2023-05-10T11:00:17;4.9;;;3.7;;
79592;SDS011;69074;45.164;9.704;2023-05-10T11:02:42;4.9;;;3.7;;
79592;SDS011;69074;45.164;9.704;2023-05-10T11:04:46;6.9;;;6.2;;
79592;SDS011;69074;45.164;9.704;2023-05-10T11:07:18;6.9;;;6.2;;
79592;SDS011;69074;45.164;9.704;2023-05-10T11:09:39;6.9;;;6.2;;
79592;SDS011;69074;45.164;9.704;2023-05-10T11:12:07;6.9;;;6.2;;
79592;SDS011;69074;45.164;9.704;2023-05-10T11:14:26;6.9;;;6.2;;
79592;SDS011;69074;45.164;9.704;2023-05-10T11:16:51;6.9;;;6.2;;
79592;SDS011;69074;45.164;9.704;2023-05-10T11:19:16;11.0;;;9.9;;
79592;SDS011;69074;45.164;9.704;2023-05-10T11:21:45;11.0;;;9.9;;
79592;SDS011;69074;45.164;9.704;2023-05-10T11:24:12;11.0;;;9.9;;
79592;SDS011;69074;45.164;9.704;2023-05-10T11:26:31;11.0;;;9.9;;
79592;SDS011;69074;45.164;9.704;2023-05-10T11:28:56;11.0;;;9.9;;
79592;SDS011;69074;45.164;9.704;2023-05-10T11:31:21;11.0;;;9.9;;
79592;SDS011;69074;45.164;9.704;2023-05-10T11:33:47;9.4;;;8.5;;
79592;SDS011;69074;45.164;9.704;2023-05-10T11:36:11;9.4;;;8.5;;
79592;SDS011;69074;45.164;9.704;2023-05-10T11:38:36;9.4;;;8.5;;
79592;SDS011;69074;45.164;9.704;2023-05-10T11:41:01;9.4;;;8.5;;
79592;SDS011;69074;45.164;9.704;2023-05-10T11:43:26;9.4;;;8.5;;
79592;SDS011;69074;45.164;9.704;2023-05-10T11:45:51;9.4;;;8.5;;
79592;SDS011;69074;45.164;9.704;2023-05-10T11:48:16;9.0;;;8.1;;
79592;SDS011;69074;45.164;9.704;2023-05-10T11:50:41;9.0;;;8.1;;
79592;SDS011;69074;45.164;9.704;2023-05-10T11:53:06;9.0;;;8.1;;
79592;SDS011;69074;45.164;9.704;2023-05-10T11:55:33;9.0;;;8.1;;
79592;SDS011;69074;45.164;9.704;2023-05-10T11:58:01;9.0;;;8.1;;
79592;SDS011;69074;45.164;9.704;2023-05-10T12:00:21;9.0;;;8.1;;
79592;SDS011;69074;45.164;9.704;2023-05-10T12:02:46;9.0;;;8.1;;
79592;SDS011;69074;45.164;9.704;2023-05-10T12:05:11;16.6;;;15.1;;
79592;SDS011;69074;45.164;9.704;2023-05-10T12:07:36;16.6;;;15.1;;
79592;SDS011;69074;45.164;9.704;2023-05-10T12:10:04;16.6;;;15.1;;
79592;SDS011;69074;45.164;9.704;2023-05-10T12:12:26;16.6;;;15.1;;
79592;SDS011;69074;45.164;9.704;2023-05-10T12:14:51;16.6;;;15.1;;
79592;SDS011;69074;45.164;9.704;2023-05-10T12:17:16;16.6;;;15.1;;
79592;SDS011;69074;45.164;9.704;2023-05-10T12:19:41;14.3;;;12.7;;
79592;SDS011;69074;45.164;9.704;2023-05-10T12:22:06;14.3;;;12.7;;
79592;SDS011;69074;45.164;9.704;2023-05-10T12:24:34;14.3;;;12.7;;
79592;SDS011;69074;45.164;9.704;2023-05-10T12:26:56;14.3;;;12.7;;
79592;SDS011;69074;45.164;9.704;2023-05-10T12:29:21;14.3;;;12.7;;
79592;SDS011;69074;45.164;9.704;2023-05-10T12:31:51;14.3;;;12.7;;
79592;SDS011;69074;45.164;9.704;2023-05-10T12:34:11;20.1;;;18.0;;
79592;SDS011;69074;45.164;9.704;2023-05-10T12:36:38;20.1;;;18.0;;
79592;SDS011;69074;45.164;9.704;2023-05-10T12:39:02;20.1;;;18.0;;
79592;SDS011;69074;45.164;9.704;2023-05-10T12:41:26;20.1;;;18.0;;
79592;SDS011;69074;45.164;9.704;2023-05-10T12:43:51;20.1;;;18.0;;
79592;SDS011;69074;45.164;9.704;2023-05-10T12:46:16;20.1;;;18.0;;
79592;SDS011;69074;45.164;9.704;2023-05-10T12:48:42;20.2;;;18.1;;
79592;SDS011;69074;45.164;9.704;2023-05-10T12:51:07;20.2;;;18.1;;
79592;SDS011;69074;45.164;9.704;2023-05-10T12:53:31;20.2;;;18.1;;
79592;SDS011;69074;45.164;9.704;2023-05-10T12:55:56;20.2;;;18.1;;
79592;SDS011;69074;45.164;9.704;2023-05-10T12:58:21;20.2;;;18.1;;
79592;SDS011;69074;45.164;9.704;2023-05-10T13:00:46;20.2;;;18.1;;
79592;SDS011;69074;45.164;9.704;2023-05-10T13:03:11;22.7;;;19.1;;
79592;SDS011;69074;45.164;9.704;2023-05-10T13:05:36;22.7;;;19.1;;
79592;SDS011;69074;45.164;9.704;2023-05-10T13:08:02;22.7;;;19.1;;
79592;SDS011;69074;45.164;9.704;2023-05-10T13:10:27;22.7;;;19.1;;
79592;SDS011;69074;45.164;9.704;2023-05-10T13:12:51;22.7;;;19.1;;
79592;SDS011;69074;45.164;9.704;2023-05-10T13:15:16;22.7;;;19.1;;
79592;SDS011;69074;45.164;9.704;2023-05-10T13:17:42;22.7;;;19.1;;
79592;SDS011;69074;45.164;9.704;2023-05-10T13:20:06;16.8;;;14.9;;
79592;SDS011;69074;45.164;9.704;2023-05-10T13:22:31;16.8;;;14.9;;
79592;SDS011;69074;45.164;9.704;2023-05-10T13:24:56;16.8;;;14.9;;
79592;SDS011;69074;45.164;9.704;2023-05-10T13:27:21;16.8;;;14.9;;
79592;SDS011;69074;45.164;9.704;2023-05-10T13:29:46;16.8;;;14.9;;
79592;SDS011;69074;45.164;9.704;2023-05-10T13:32:11;16.8;;;14.9;;
79592;SDS011;69074;45.164;9.704;2023-05-10T13:34:36;39.6;;;24.3;;
79592;SDS011;69074;45.164;9.704;2023-05-10T13:37:01;39.6;;;24.3;;
79592;SDS011;69074;45.164;9.704;2023-05-10T13:39:26;39.6;;;24.3;;
79592;SDS011;69074;45.164;9.704;2023-05-10T13:41:51;39.6;;;24.3;;
79592;SDS011;69074;45.164;9.704;2023-05-10T13:44:16;39.6;;;24.3;;
79592;SDS011;69074;45.164;9.704;2023-05-10T13:46:41;39.6;;;24.3;;
79592;SDS011;69074;45.164;9.704;2023-05-10T13:49:06;36.4;;;23.7;;
79592;SDS011;69074;45.164;9.704;2023-05-10T13:51:32;36.4;;;23.7;;
79592;SDS011;69074;45.164;9.704;2023-05-10T13:53:56;36.4;;;23.7;;
79592;SDS011;69074;45.164;9.704;2023-05-10T13:56:21;36.4;;;23.7;;
79592;SDS011;69074;45.164;9.704;2023-05-10T13:58:46;36.4;;;23.7;;
79592;SDS011;69074;45.164;9.704;2023-05-10T14:01:11;36.4;;;23.7;;
79592;SDS011;69074;45.164;9.704;2023-05-10T14:03:36;40.7;;;29.3;;
79592;SDS011;69074;45.164;9.704;2023-05-10T14:06:01;40.7;;;29.3;;
79592;SDS011;69074;45.164;9.704;2023-05-10T14:08:27;40.7;;;29.3;;
79592;SDS011;69074;45.164;9.704;2023-05-10T14:10:51;40.7;;;29.3;;
79592;SDS011;69074;45.164;9.704;2023-05-10T14:13:17;40.7;;;29.3;;
79592;SDS011;69074;45.164;9.704;2023-05-10T14:15:41;40.7;;;29.3;;
79592;SDS011;69074;45.164;9.704;2023-05-10T14:18:06;40.7;;;29.3;;
79592;SDS011;69074;45.164;9.704;2023-05-10T14:20:31;31.4;;;24.3;;
79592;SDS011;69074;45.164;9.704;2023-05-10T14:22:56;31.4;;;24.3;;
79592;SDS011;69074;45.164;9.704;2023-05-10T14:25:21;31.4;;;24.3;;
79592;SDS011;69074;45.164;9.704;2023-05-10T14:27:46;31.4;;;24.3;;
79592;SDS011;69074;45.164;9.704;2023-05-10T14:30:12;31.4;;;24.3;;
79592;SDS011;69074;45.164;9.704;2023-05-10T14:32:37;31.4;;;24.3;;
79592;SDS011;69074;45.164;9.704;2023-05-10T14:35:02;33.7;;;24.0;;
79592;SDS011;69074;45.164;9.704;2023-05-10T14:37:27;33.7;;;24.0;;
79592;SDS011;69074;45.164;9.704;2023-05-10T14:39:52;33.7;;;24.0;;
79592;SDS011;69074;45.164;9.704;2023-05-10T14:42:17;33.7;;;24.0;;
79592;SDS011;69074;45.164;9.704;2023-05-10T14:44:42;33.7;;;24.0;;
79592;SDS011;69074;45.164;9.704;2023-05-10T14:47:07;33.7;;;24.0;;
79592;SDS011;69074;45.164;9.704;2023-05-10T14:49:32;26.5;;;20.4;;
79592;SDS011;69074;45.164;9.704;2023-05-10T14:51:57;26.5;;;20.4;;
79592;SDS011;69074;45.164;9.704;2023-05-10T14:54:22;26.5;;;20.4;;